createdAt,value
2017-11-06T00:00:11.271Z,6.25
2017-11-06T00:01:11.093Z,6.16
2017-11-06T00:02:11.065Z,6.22
2017-11-06T00:03:11.099Z,6.28
2017-11-06T00:04:11.548Z,6.22
2017-11-06T00:05:11.543Z,6.25
2017-11-06T00:06:11.448Z,6.28
2017-11-06T00:07:11.336Z,6.29
2017-11-06T00:08:11.361Z,6.14
2017-11-06T00:09:11.379Z,6.10
2017-11-06T00:10:11.906Z,6.13
2017-11-06T00:11:11.600Z,6.16
2017-11-06T00:12:11.625Z,6.18
2017-11-06T00:13:11.554Z,6.18
2017-11-06T00:14:11.761Z,6.11
2017-11-06T00:15:11.988Z,6.13
2017-11-06T00:16:11.899Z,6.13
2017-11-06T00:17:11.763Z,6.16
2017-11-06T00:18:12.316Z,6.06
2017-11-06T00:19:11.785Z,6.13
2017-11-06T00:20:12.174Z,6.01
2017-11-06T00:21:12.013Z,5.98
2017-11-06T00:22:12.008Z,6.04
2017-11-06T00:23:12.097Z,6.01
2017-11-06T00:24:12.114Z,6.03
2017-11-06T00:25:12.544Z,6.03
2017-11-06T00:26:12.345Z,6.09
2017-11-06T00:27:12.151Z,6.09
2017-11-06T00:28:12.382Z,5.96
2017-11-06T00:29:12.483Z,6.09
2017-11-06T00:30:12.760Z,6.03
2017-11-06T00:31:12.753Z,6.07
2017-11-06T00:32:12.718Z,6.00
2017-11-06T00:33:12.539Z,6.03
2017-11-06T00:34:13.344Z,6.03
2017-11-06T00:35:12.996Z,6.03
2017-11-06T00:36:12.789Z,6.10
2017-11-06T00:37:12.687Z,6.03
2017-11-06T00:38:12.677Z,6.03
2017-11-06T00:39:12.854Z,6.07
2017-11-06T00:40:13.136Z,6.00
2017-11-06T00:41:13.079Z,5.96
2017-11-06T00:42:12.957Z,5.88
2017-11-06T00:43:12.850Z,5.86
2017-11-06T00:44:12.971Z,5.95
2017-11-06T00:45:13.306Z,5.82
2017-11-06T00:46:13.029Z,5.73
2017-11-06T00:47:13.206Z,5.74
2017-11-06T00:48:13.202Z,5.75
2017-11-06T00:49:13.346Z,5.77
